Time;durP1;ratioP1;P1;durP2;ratioP2;P2;SDS_P1;SDS_P2;PMS_P1;PMS_P2;Temp;Humidity;BMP_temperature;BMP_pressure;BME280_temperature;BME280_humidity;BME280_pressure;Samples;Min_cycle;Max_cycle;Signal;HPM_P1;HPM_P2
2022/03/04 00:01:57;;;;;;;29.90;7.93;;;;;;;18.81;49.02;100342.88;5037782;28;20295;-60
2022/03/04 00:04:23;;;;;;;22.97;8.40;;;;;;;18.82;48.46;100341.66;5045675;28;20200;-61
2022/03/04 00:06:49;;;;;;;15.93;7.17;;;;;;;18.82;48.23;100347.38;5046491;28;20599;-60
2022/03/04 00:09:15;;;;;;;17.30;7.50;;;;;;;18.84;48.02;100347.84;5047855;28;20207;-60
2022/03/04 00:11:40;;;;;;;14.13;7.60;;;;;;;18.82;48.49;100353.09;5048827;28;20175;-60
2022/03/04 00:14:06;;;;;;;18.30;7.77;;;;;;;18.79;48.91;100359.59;5021329;28;20870;-60
2022/03/04 00:16:32;;;;;;;12.10;6.93;;;;;;;18.79;49.06;100358.78;5027254;28;20254;-59
2022/03/04 00:19:07;;;;;;;12.60;6.57;;;;;;;18.78;49.30;100363.69;5028116;28;20785;-59
2022/03/04 00:21:49;;;;;;;13.93;6.30;;;;;;;18.79;49.27;100365.34;5027361;28;20239;-59
2022/03/04 00:24:15;;;;;;;14.93;6.87;;;;;;;18.79;49.16;100371.06;5044208;28;20521;-59
2022/03/04 00:26:41;;;;;;;18.40;7.60;;;;;;;18.78;49.36;100368.56;5047112;28;20410;-59
2022/03/04 00:29:06;;;;;;;12.40;5.80;;;;;;;18.81;49.62;100368.63;5047419;28;20426;-59
2022/03/04 00:31:32;;;;;;;18.67;6.77;;;;;;;18.77;49.76;100373.44;5047058;28;20664;-59
2022/03/04 00:33:58;;;;;;;19.90;6.27;;;;;;;18.79;49.90;100364.50;5048071;28;20172;-59
2022/03/04 00:36:23;;;;;;;17.27;6.20;;;;;;;18.80;49.78;100374.72;5048331;28;20429;-59
2022/03/04 00:38:50;;;;;;;15.43;6.70;;;;;;;18.79;50.10;100376.78;5047209;28;20196;-59
2022/03/04 00:41:19;;;;;;;11.13;5.50;;;;;;;18.80;49.80;100372.69;5048432;28;20227;-59
2022/03/04 00:43:45;;;;;;;14.00;6.50;;;;;;;18.80;50.15;100366.97;5047901;28;20419;-59
2022/03/04 00:46:11;;;;;;;10.20;5.20;;;;;;;18.78;50.18;100369.41;5030214;28;20490;-59
2022/03/04 00:48:37;;;;;;;12.43;6.10;;;;;;;18.77;50.21;100373.44;5048204;28;20240;-59
2022/03/04 00:51:03;;;;;;;11.80;5.70;;;;;;;18.77;50.08;100369.78;5047270;28;20417;-60
2022/03/04 00:53:28;;;;;;;14.73;6.33;;;;;;;18.79;50.26;100373.06;5046698;28;20282;-60
2022/03/04 00:55:53;;;;;;;11.90;5.90;;;;;;;18.77;50.15;100372.63;5051469;28;20175;-59
2022/03/04 00:58:19;;;;;;;9.67;5.33;;;;;;;18.78;50.18;100362.84;5052245;28;20537;-60
2022/03/04 01:00:44;;;;;;;11.00;4.90;;;;;;;18.75;50.40;100367.28;5051999;28;20183;-59
2022/03/04 01:03:10;;;;;;;10.93;5.87;;;;;;;18.75;50.41;100366.44;5032764;28;20196;-59
2022/03/04 01:05:35;;;;;;;12.50;4.90;;;;;;;18.76;50.31;100366.06;5035429;28;20227;-59
2022/03/04 01:08:00;;;;;;;15.43;5.90;;;;;;;18.76;50.45;100362.41;5017529;28;20180;-59
2022/03/04 01:10:26;;;;;;;17.37;5.50;;;;;;;18.73;50.58;100368.88;5051403;28;20168;-60
2022/03/04 01:12:51;;;;;;;10.77;5.60;;;;;;;18.75;50.63;100375.88;5050707;28;20537;-59
2022/03/04 01:15:17;;;;;;;11.73;5.80;;;;;;;18.75;50.73;100370.16;5048637;28;20582;-59
2022/03/04 01:17:42;;;;;;;9.97;5.13;;;;;;;18.74;50.94;100368.50;5050943;28;20258;-59
2022/03/04 01:20:08;;;;;;;13.40;5.83;;;;;;;18.73;50.72;100364.00;5051701;28;20195;-60
2022/03/04 01:22:34;;;;;;;9.30;5.43;;;;;;;18.74;50.90;100362.78;5051528;28;20179;-59
2022/03/04 01:24:59;;;;;;;14.23;5.03;;;;;;;18.74;50.78;100362.78;5051342;28;20761;-59
2022/03/04 01:27:25;;;;;;;10.23;5.33;;;;;;;18.73;50.94;100349.69;5051028;28;20229;-59
2022/03/04 01:29:50;;;;;;;12.83;5.43;;;;;;;18.72;50.86;100359.47;5050082;28;20556;-59
2022/03/04 01:32:16;;;;;;;13.07;5.63;;;;;;;18.74;50.96;100357.06;5038587;28;20185;-59
2022/03/04 01:34:41;;;;;;;12.87;5.60;;;;;;;18.71;50.99;100357.81;5032220;28;20211;-59
2022/03/04 01:37:07;;;;;;;10.90;5.33;;;;;;;18.72;50.98;100348.03;5046820;28;20188;-59
2022/03/04 01:39:33;;;;;;;9.63;4.70;;;;;;;18.72;50.64;100348.03;5049455;28;20171;-59
2022/03/04 01:41:58;;;;;;;15.50;5.30;;;;;;;18.74;50.65;100339.06;5050989;28;20839;-59
2022/03/04 01:44:23;;;;;;;11.80;5.10;;;;;;;18.72;51.05;100342.31;5050651;28;20180;-59
2022/03/04 01:46:49;;;;;;;12.40;5.07;;;;;;;18.73;51.12;100335.41;5051243;28;20179;-59
2022/03/04 01:49:14;;;;;;;10.40;4.90;;;;;;;18.71;51.00;100340.66;5051029;28;20187;-60
2022/03/04 01:51:40;;;;;;;9.30;5.23;;;;;;;18.70;51.00;100343.88;5051597;28;20171;-60
2022/03/04 01:54:05;;;;;;;12.90;5.27;;;;;;;18.73;50.69;100334.56;5051147;28;20225;-60
2022/03/04 01:56:31;;;;;;;10.30;5.63;;;;;;;18.69;51.29;100330.81;5051060;28;20191;-60
2022/03/04 01:58:56;;;;;;;10.77;4.87;;;;;;;18.67;50.98;100331.19;5050135;28;20627;-59
2022/03/04 02:01:22;;;;;;;10.60;4.90;;;;;;;18.71;50.87;100337.00;5044828;28;20200;-59
2022/03/04 02:03:47;;;;;;;11.97;5.73;;;;;;;18.71;50.85;100334.94;5030865;28;20196;-60
2022/03/04 02:06:13;;;;;;;9.50;5.13;;;;;;;18.71;51.25;100334.13;5039400;28;20228;-59
2022/03/04 02:08:38;;;;;;;8.50;4.13;;;;;;;18.71;51.11;100332.06;5051165;28;20191;-59
2022/03/04 02:11:04;;;;;;;10.93;5.13;;;;;;;18.68;51.12;100335.72;5050321;28;20172;-59
2022/03/04 02:13:29;;;;;;;13.53;5.17;;;;;;;18.67;51.23;100336.91;5051236;28;20175;-59
2022/03/04 02:15:55;;;;;;;11.93;4.87;;;;;;;18.68;50.98;100327.13;5050896;28;20175;-59
2022/03/04 02:18:21;;;;;;;9.83;4.47;;;;;;;18.69;50.90;100333.66;5050068;28;20187;-60
2022/03/04 02:20:48;;;;;;;12.30;4.83;;;;;;;18.70;51.15;100344.72;5049387;28;20208;-60
2022/03/04 02:23:13;;;;;;;9.80;5.20;;;;;;;18.68;51.18;100344.28;5050702;28;20279;-60
2022/03/04 02:25:46;;;;;;;7.87;4.60;;;;;;;18.68;51.02;100347.16;5047537;28;20419;-60
2022/03/04 02:28:12;;;;;;;13.97;5.50;;;;;;;18.68;50.79;100346.31;5050917;28;20194;-59
2022/03/04 02:30:37;;;;;;;10.97;4.47;;;;;;;18.68;51.08;100341.44;5050333;28;20410;-59
2022/03/04 02:33:05;;;;;;;11.47;4.73;;;;;;;18.68;51.00;100347.16;5050743;28;20184;-59
2022/03/04 02:35:30;;;;;;;8.43;4.90;;;;;;;18.67;51.15;100353.25;5050593;28;20669;-60
2022/03/04 02:37:56;;;;;;;9.30;4.50;;;;;;;18.69;51.25;100357.38;5032705;28;20497;-60
2022/03/04 02:40:22;;;;;;;7.50;4.50;;;;;;;18.69;51.03;100356.53;5049698;28;20212;-60
2022/03/04 02:42:47;;;;;;;8.93;4.80;;;;;;;18.68;51.03;100358.59;5050188;28;20183;-60
2022/03/04 02:45:12;;;;;;;7.77;4.47;;;;;;;18.64;51.12;100360.56;5031870;28;20256;-60
2022/03/04 02:47:38;;;;;;;9.07;4.70;;;;;;;18.64;51.09;100356.84;5050464;28;20172;-60
2022/03/04 02:50:04;;;;;;;7.60;4.47;;;;;;;18.65;51.29;100361.38;5048783;28;20167;-60
2022/03/04 02:52:29;;;;;;;11.30;5.00;;;;;;;18.64;51.29;100362.56;5049403;28;20183;-59
2022/03/04 02:54:55;;;;;;;8.83;4.70;;;;;;;18.65;51.29;100365.06;5048666;28;20160;-59
2022/03/04 02:57:20;;;;;;;9.60;4.53;;;;;;;18.65;51.20;100365.06;5048986;28;20273;-59
2022/03/04 02:59:45;;;;;;;12.20;4.40;;;;;;;18.69;51.27;100370.84;5050085;28;20183;-60
2022/03/04 03:02:11;;;;;;;10.53;4.40;;;;;;;18.64;51.25;100369.13;5036805;28;20646;-59
2022/03/04 03:04:36;;;;;;;8.10;4.50;;;;;;;18.64;51.18;100369.13;5028013;28;20212;-59
2022/03/04 03:07:02;;;;;;;8.97;4.93;;;;;;;18.64;51.02;100380.56;5045830;28;20195;-59
2022/03/04 03:09:27;;;;;;;9.27;4.27;;;;;;;18.63;51.38;100367.50;5048881;28;20180;-59
2022/03/04 03:11:53;;;;;;;10.30;4.70;;;;;;;18.64;51.12;100366.28;5050020;28;20168;-59
2022/03/04 03:14:18;;;;;;;10.70;5.43;;;;;;;18.63;51.09;100363.78;5049697;28;20687;-60
2022/03/04 03:16:44;;;;;;;8.23;4.40;;;;;;;18.63;51.06;100360.94;5046160;28;20176;-60
2022/03/04 03:19:09;;;;;;;8.63;4.30;;;;;;;18.65;51.21;100355.66;5049768;28;20195;-60
2022/03/04 03:21:34;;;;;;;8.43;4.70;;;;;;;18.62;50.92;100370.72;5049677;28;20204;-60
2022/03/04 03:24:00;;;;;;;7.97;4.30;;;;;;;18.63;51.30;100361.78;5049004;28;20826;-60
2022/03/04 03:26:25;;;;;;;8.17;4.30;;;;;;;18.62;51.49;100377.25;5049529;28;20570;-60
2022/03/04 03:28:51;;;;;;;14.87;4.83;;;;;;;18.62;51.28;100377.25;5034643;28;20622;-60
2022/03/04 03:31:16;;;;;;;7.83;4.20;;;;;;;18.62;51.00;100367.88;5028841;28;20663;-60
2022/03/04 03:33:43;;;;;;;10.73;4.73;;;;;;;18.60;51.16;100382.53;5031535;28;20187;-61
2022/03/04 03:36:08;;;;;;;6.97;3.60;;;;;;;18.62;51.21;100385.81;5038966;28;20187;-61
2022/03/04 03:38:34;;;;;;;8.93;4.10;;;;;;;18.62;51.14;100382.16;5049245;28;20430;-60
2022/03/04 03:40:59;;;;;;;7.53;4.47;;;;;;;18.62;51.14;100382.16;5031201;28;20207;-60
2022/03/04 03:43:25;;;;;;;8.70;4.40;;;;;;;18.59;51.30;100380.88;5049158;28;20654;-60
2022/03/04 03:45:50;;;;;;;8.47;4.20;;;;;;;18.60;51.44;100376.81;5048711;28;20183;-62
2022/03/04 03:48:15;;;;;;;5.10;3.50;;;;;;;18.60;51.35;100373.94;5031021;28;20197;-60
2022/03/04 03:50:41;;;;;;;7.60;4.10;;;;;;;18.60;50.96;100368.25;5048467;28;20230;-60
2022/03/04 03:53:08;;;;;;;6.90;4.10;;;;;;;18.61;51.40;100372.75;5049136;28;20175;-60
2022/03/04 03:55:33;;;;;;;11.77;4.87;;;;;;;18.62;51.28;100371.53;5048987;28;20171;-60
2022/03/04 03:57:59;;;;;;;5.27;3.83;;;;;;;18.61;51.17;100374.78;5049203;28;20422;-60
2022/03/04 04:00:25;;;;;;;10.17;4.20;;;;;;;18.62;51.37;100377.25;5048801;28;20227;-61
2022/03/04 04:02:51;;;;;;;11.83;4.20;;;;;;;18.60;50.93;100376.81;5031616;28;20267;-60
2022/03/04 04:05:16;;;;;;;7.10;3.80;;;;;;;18.59;51.50;100380.88;5029650;28;20965;-60
2022/03/04 04:07:41;;;;;;;9.00;4.77;;;;;;;18.58;51.02;100376.38;5049145;28;20936;-60
2022/03/04 04:10:08;;;;;;;6.00;3.80;;;;;;;18.58;51.22;100373.53;5048868;28;20168;-60
2022/03/04 04:12:34;;;;;;;8.30;4.27;;;;;;;18.59;51.14;100374.31;5048739;28;20186;-60
2022/03/04 04:14:59;;;;;;;8.33;4.30;;;;;;;18.60;51.42;100373.13;5048864;28;20403;-60
2022/03/04 04:17:25;;;;;;;6.90;3.63;;;;;;;18.58;51.13;100370.66;5048616;28;20474;-60
2022/03/04 04:19:50;;;;;;;6.07;3.97;;;;;;;18.60;51.38;100368.25;5048436;28;20179;-59
2022/03/04 04:22:15;;;;;;;7.63;3.93;;;;;;;18.61;51.20;100369.88;5048385;28;20198;-60
2022/03/04 04:24:41;;;;;;;6.67;3.97;;;;;;;18.61;51.02;100372.75;5048816;28;20654;-60
2022/03/04 04:27:06;;;;;;;6.03;3.80;;;;;;;18.62;50.96;100374.38;5048959;28;20186;-61
2022/03/04 04:29:32;;;;;;;7.00;3.90;;;;;;;18.62;51.32;100382.16;5048022;28;20179;-59
2022/03/04 04:31:57;;;;;;;6.27;4.10;;;;;;;18.62;51.06;100380.09;5045194;28;20182;-59
2022/03/04 04:34:22;;;;;;;6.73;4.30;;;;;;;18.59;51.38;100391.47;5048493;28;20176;-60
2022/03/04 04:36:48;;;;;;;6.83;4.37;;;;;;;18.60;51.05;100388.25;5048351;28;20190;-60
2022/03/04 04:39:13;;;;;;;6.47;3.70;;;;;;;18.60;51.12;100385.38;5047981;28;20538;-60
2022/03/04 04:41:39;;;;;;;5.97;3.70;;;;;;;18.59;51.27;100378.03;5047643;28;20199;-60
2022/03/04 04:44:04;;;;;;;5.97;4.10;;;;;;;18.59;51.31;100392.31;5048381;28;20179;-60
2022/03/04 04:46:30;;;;;;;6.40;3.70;;;;;;;18.61;51.00;100395.63;5048554;28;20200;-60
2022/03/04 04:48:56;;;;;;;6.87;3.57;;;;;;;18.59;51.47;100400.91;5047302;28;20176;-60
2022/03/04 04:51:21;;;;;;;5.70;3.80;;;;;;;18.60;51.31;100396.81;5048175;28;20175;-59
2022/03/04 04:53:46;;;;;;;6.47;3.60;;;;;;;18.61;51.43;100398.47;5047782;28;20176;-59
2022/03/04 04:56:12;;;;;;;6.30;3.80;;;;;;;18.60;50.98;100391.13;5048232;28;20706;-59
2022/03/04 04:58:37;;;;;;;9.17;4.90;;;;;;;18.64;50.85;100399.75;5048634;28;20194;-59
2022/03/04 05:01:03;;;;;;;6.33;4.17;;;;;;;18.64;50.92;100403.44;5045886;28;20195;-59
2022/03/04 05:03:28;;;;;;;6.70;4.07;;;;;;;18.62;51.08;100405.03;5028440;28;20207;-60
2022/03/04 05:05:54;;;;;;;7.27;3.83;;;;;;;18.60;51.10;100396.81;5035613;28;20219;-60
2022/03/04 05:08:20;;;;;;;6.10;3.50;;;;;;;18.62;51.00;100400.13;5048166;28;20188;-59
2022/03/04 05:10:45;;;;;;;6.80;3.60;;;;;;;18.61;50.96;100403.38;5047655;28;20411;-59
2022/03/04 05:13:13;;;;;;;7.27;4.37;;;;;;;18.60;51.33;100413.16;5047639;28;20541;-60
2022/03/04 05:15:39;;;;;;;5.80;3.57;;;;;;;18.58;51.18;100413.56;5027767;28;20258;-60
2022/03/04 05:18:05;;;;;;;6.70;3.83;;;;;;;18.60;51.13;100416.00;5047887;28;20486;-60
2022/03/04 05:20:30;;;;;;;5.23;3.50;;;;;;;18.60;50.95;100422.56;5047802;28;20219;-60
2022/03/04 05:22:56;;;;;;;6.57;3.97;;;;;;;18.60;50.89;100413.16;5047539;28;20199;-60
2022/03/04 05:25:21;;;;;;;6.00;3.80;;;;;;;18.60;51.13;100419.69;5044804;28;20220;-60
2022/03/04 05:27:46;;;;;;;7.13;3.63;;;;;;;18.59;51.26;100420.91;5048182;28;20191;-60
2022/03/04 05:30:12;;;;;;;9.70;4.53;;;;;;;18.61;51.10;100420.53;5044223;28;20173;-60
2022/03/04 05:32:37;;;;;;;6.50;3.13;;;;;;;18.61;50.92;100427.06;5048216;28;20218;-60
2022/03/04 05:35:04;;;;;;;6.33;3.90;;;;;;;18.61;51.23;100424.22;5048041;28;20537;-60
2022/03/04 05:37:29;;;;;;;6.50;3.90;;;;;;;18.59;51.07;100429.50;5047788;28;20263;-60
2022/03/04 05:39:55;;;;;;;5.07;2.97;;;;;;;18.60;50.93;100430.31;5049730;28;20406;-61
2022/03/04 05:42:20;;;;;;;6.47;3.30;;;;;;;18.64;50.89;100437.75;5051426;28;20175;-61
2022/03/04 05:44:45;;;;;;;5.87;3.50;;;;;;;18.60;50.90;100433.16;5051839;28;20179;-60
2022/03/04 05:47:11;;;;;;;5.60;3.50;;;;;;;18.60;50.98;100448.31;5051867;28;20171;-60
2022/03/04 05:49:37;;;;;;;7.10;3.87;;;;;;;18.62;50.88;100442.22;5051475;28;20167;-60
2022/03/04 05:52:03;;;;;;;6.63;3.60;;;;;;;18.60;51.19;100447.47;5050354;28;20168;-60
2022/03/04 05:54:28;;;;;;;6.73;3.93;;;;;;;18.56;51.01;100452.31;5049771;28;20179;-60
2022/03/04 05:56:54;;;;;;;8.43;3.73;;;;;;;18.62;50.94;100457.31;5051571;28;20516;-60
2022/03/04 05:59:19;;;;;;;6.07;3.63;;;;;;;18.61;51.02;100454.84;5051051;28;20168;-60
2022/03/04 06:01:45;;;;;;;7.23;4.00;;;;;;;18.58;50.90;100456.44;5043249;28;20247;-60
2022/03/04 06:04:10;;;;;;;5.53;3.20;;;;;;;18.60;50.96;100464.63;5031552;28;20204;-60
2022/03/04 06:06:35;;;;;;;5.63;3.60;;;;;;;18.59;50.71;100463.81;5043102;28;20234;-60
2022/03/04 06:09:01;;;;;;;5.80;3.80;;;;;;;18.59;51.20;100469.53;5050026;28;20179;-61
2022/03/04 06:11:27;;;;;;;6.53;4.37;;;;;;;18.57;51.09;100469.06;5050749;28;20164;-60
2022/03/04 06:13:52;;;;;;;5.27;3.30;;;;;;;18.57;51.08;100471.91;5050792;28;20541;-60
2022/03/04 06:16:19;;;;;;;8.13;3.60;;;;;;;18.61;50.87;100483.44;5051199;28;20168;-60
2022/03/04 06:18:45;;;;;;;6.50;4.00;;;;;;;18.61;50.75;100477.72;5050344;28;20203;-60
2022/03/04 06:21:10;;;;;;;5.37;3.40;;;;;;;18.61;51.07;100477.72;5050611;28;20454;-60
2022/03/04 06:23:35;;;;;;;6.30;3.50;;;;;;;18.61;50.95;100477.72;5050512;28;20229;-61
2022/03/04 06:26:01;;;;;;;4.67;3.10;;;;;;;18.59;51.11;100483.81;5050631;28;20214;-60
2022/03/04 06:28:26;;;;;;;6.03;3.63;;;;;;;18.62;50.79;100483.03;5050430;28;20175;-61
2022/03/04 06:30:52;;;;;;;7.20;4.03;;;;;;;18.64;51.23;100482.69;5046541;28;20214;-60
2022/03/04 06:33:30;;;;;;;15.70;7.73;;;;;;;18.53;49.68;100484.50;5041869;28;20202;-62
2022/03/04 06:35:56;;;;;;;22.00;16.50;;;;;;;17.98;43.53;100480.00;5046119;28;20513;-62
2022/03/04 06:38:21;;;;;;;21.60;16.77;;;;;;;18.27;40.98;100484.31;5046317;28;20525;-62
2022/03/04 06:40:47;;;;;;;26.93;17.53;;;;;;;18.82;39.21;100484.69;5046989;28;20504;-61
2022/03/04 06:43:13;;;;;;;30.90;19.00;;;;;;;18.92;39.85;100488.97;5048532;28;20266;-61
2022/03/04 06:45:43;;;;;;;24.70;17.50;;;;;;;18.88;40.34;100486.06;5049897;28;20186;-62
2022/03/04 06:48:10;;;;;;;21.57;15.70;;;;;;;19.01;41.38;100486.72;5048860;28;20302;-61
2022/03/04 06:50:35;;;;;;;24.17;16.00;;;;;;;19.13;41.68;100495.09;5049098;28;20419;-61
2022/03/04 06:53:00;;;;;;;17.43;13.77;;;;;;;19.10;41.65;100496.69;5049830;28;21184;-61
2022/03/04 06:55:26;;;;;;;23.43;14.17;;;;;;;19.13;42.28;100495.09;5049074;28;20172;-61
2022/03/04 06:57:54;;;;;;;18.10;12.57;;;;;;;19.20;42.53;100498.94;5049098;28;20803;-61
2022/03/04 07:00:19;;;;;;;22.80;14.33;;;;;;;19.30;42.07;100500.34;5048794;28;20203;-63
2022/03/04 07:02:45;;;;;;;22.23;12.70;;;;;;;19.30;42.46;100497.50;5049920;28;20437;-61
2022/03/04 07:05:10;;;;;;;19.20;13.00;;;;;;;19.30;43.50;100511.81;5050012;28;20222;-62
2022/03/04 07:07:36;;;;;;;19.30;12.60;;;;;;;19.48;42.40;100502.34;5049772;28;20928;-62
2022/03/04 07:10:02;;;;;;;19.93;12.43;;;;;;;19.33;42.91;100511.06;5049735;28;20224;-62
2022/03/04 07:12:27;;;;;;;20.20;12.40;;;;;;;19.16;43.57;100514.38;5049311;28;20201;-62
2022/03/04 07:14:53;;;;;;;18.03;11.43;;;;;;;19.10;44.21;100511.00;5048598;28;20434;-62
2022/03/04 07:17:18;;;;;;;16.90;11.83;;;;;;;19.04;43.95;100515.38;5049466;28;20184;-62
2022/03/04 07:19:44;;;;;;;16.13;11.47;;;;;;;19.02;44.05;100512.06;5049308;28;20183;-62
2022/03/04 07:22:09;;;;;;;15.83;10.57;;;;;;;19.00;44.09;100517.34;5049997;28;20211;-62
2022/03/04 07:24:35;;;;;;;16.30;11.07;;;;;;;18.99;43.29;100523.44;5045677;28;20570;-62
2022/03/04 07:27:00;;;;;;;16.07;9.10;;;;;;;18.93;44.81;100514.34;5029140;28;20179;-62
2022/03/04 07:29:26;;;;;;;26.07;10.47;;;;;;;18.96;44.81;100521.34;5027236;28;20164;-62
2022/03/04 07:31:53;;;;;;;28.17;10.30;;;;;;;18.95;44.84;100523.38;5038873;28;20199;-62
2022/03/04 07:34:19;;;;;;;14.37;9.73;;;;;;;18.93;44.74;100528.66;5048796;28;20186;-61
2022/03/04 07:36:44;;;;;;;20.10;10.30;;;;;;;18.89;44.07;100524.06;5050124;28;20435;-61
2022/03/04 07:39:10;;;;;;;15.13;9.37;;;;;;;18.84;44.96;100532.94;5048633;28;20937;-61
2022/03/04 07:41:35;;;;;;;11.00;8.67;;;;;;;18.86;44.81;100539.13;5048628;28;20195;-61
2022/03/04 07:44:01;;;;;;;18.43;8.80;;;;;;;18.80;45.45;100534.91;5049630;28;20258;-62
2022/03/04 07:46:26;;;;;;;16.20;9.80;;;;;;;18.78;45.16;100532.44;5048169;28;20179;-62
2022/03/04 07:48:52;;;;;;;15.20;8.77;;;;;;;18.74;44.93;100530.69;5047599;28;20900;-61
2022/03/04 07:51:17;;;;;;;17.70;8.90;;;;;;;18.78;45.03;100540.19;5048233;28;20184;-61
2022/03/04 07:53:42;;;;;;;16.33;8.83;;;;;;;18.70;45.01;100539.19;5048201;28;20214;-61
2022/03/04 07:56:09;;;;;;;14.70;8.03;;;;;;;18.74;44.68;100545.84;5049415;28;20591;-61
2022/03/04 07:58:34;;;;;;;17.30;8.90;;;;;;;18.73;45.19;100544.19;5031932;28;20175;-61
2022/03/04 08:01:00;;;;;;;22.53;9.03;;;;;;;18.74;45.83;100547.84;5046185;28;20462;-61
2022/03/04 08:03:25;;;;;;;17.13;8.60;;;;;;;18.70;46.98;100544.06;5046596;28;20202;-61
2022/03/04 08:05:51;;;;;;;14.80;8.23;;;;;;;18.81;46.89;100545.97;5047793;28;20242;-60
2022/03/04 08:08:16;;;;;;;17.93;8.27;;;;;;;18.82;47.17;100549.66;5043688;28;20250;-60
2022/03/04 08:10:41;;;;;;;16.40;7.87;;;;;;;18.81;47.09;100559.47;5028567;28;20597;-60
2022/03/04 08:13:07;;;;;;;18.27;7.73;;;;;;;18.80;47.15;100552.91;5028895;28;20184;-60
2022/03/04 08:15:32;;;;;;;12.70;6.80;;;;;;;18.88;47.21;100559.59;5029251;28;20180;-60
2022/03/04 08:17:58;;;;;;;16.33;8.13;;;;;;;18.88;47.31;100557.56;5028772;28;20172;-61
2022/03/04 08:20:26;;;;;;;15.20;7.30;;;;;;;18.97;47.07;100565.91;5028036;28;20204;-61
2022/03/04 08:22:52;;;;;;;10.13;6.70;;;;;;;18.91;47.14;100562.53;5029457;28;20227;-60
2022/03/04 08:25:17;;;;;;;19.03;7.77;;;;;;;18.89;47.59;100555.53;5027738;28;20910;-60
2022/03/04 08:27:43;;;;;;;14.63;6.93;;;;;;;18.90;47.42;100560.88;5028961;28;20654;-60
2022/03/04 08:30:09;;;;;;;16.67;6.97;;;;;;;18.89;47.51;100564.09;5030051;28;20168;-60
2022/03/04 08:32:35;;;;;;;17.23;8.00;;;;;;;18.89;47.68;100564.09;5009538;28;20184;-60
2022/03/04 08:35:00;;;;;;;15.70;6.37;;;;;;;18.86;47.75;100564.88;5028172;28;20787;-60
2022/03/04 08:37:26;;;;;;;15.63;5.93;;;;;;;18.85;47.73;100564.03;5048404;28;20187;-61
2022/03/04 08:39:52;;;;;;;15.10;5.90;;;;;;;18.90;47.88;100565.75;5048859;28;20168;-61
2022/03/04 08:42:17;;;;;;;15.23;6.50;;;;;;;18.86;47.90;100568.53;5049350;28;20179;-60
2022/03/04 08:44:42;;;;;;;10.57;6.17;;;;;;;18.81;48.26;100562.31;5048143;28;20278;-60
2022/03/04 08:47:08;;;;;;;12.73;5.93;;;;;;;18.83;48.04;100569.31;5030924;28;20521;-60
2022/03/04 08:49:34;;;;;;;12.73;6.63;;;;;;;18.81;48.32;100568.84;5047391;28;20186;-60
2022/03/04 08:51:59;;;;;;;8.60;4.60;;;;;;;18.82;48.02;100569.69;5048247;28;20601;-60
2022/03/04 08:54:25;;;;;;;13.33;6.00;;;;;;;18.83;48.39;100572.19;5048674;28;20168;-60
2022/03/04 08:56:51;;;;;;;13.90;6.60;;;;;;;18.78;48.43;100572.47;5049450;28;20176;-60
2022/03/04 08:59:16;;;;;;;12.13;5.40;;;;;;;18.78;48.23;100574.50;5046990;28;20182;-60
2022/03/04 09:01:42;;;;;;;11.23;5.67;;;;;;;18.79;48.33;100564.72;5049390;28;20195;-60
2022/03/04 09:04:07;;;;;;;15.67;5.27;;;;;;;18.76;48.41;100574.88;5047915;28;20211;-61
2022/03/04 09:06:33;;;;;;;12.00;6.00;;;;;;;18.78;48.29;100569.63;5047665;28;20690;-60
2022/03/04 09:08:59;;;;;;;14.50;6.03;;;;;;;18.79;48.24;100576.16;5037348;28;20242;-61
2022/03/04 09:11:24;;;;;;;10.27;4.77;;;;;;;18.81;48.44;100574.56;5028241;28;20838;-61
2022/03/04 09:13:50;;;;;;;17.70;5.60;;;;;;;18.78;48.58;100568.78;5028224;28;20423;-60
2022/03/04 09:16:15;;;;;;;9.23;5.53;;;;;;;18.78;48.52;100565.91;5032974;28;20175;-60
2022/03/04 09:18:41;;;;;;;10.20;5.80;;;;;;;18.80;48.38;100575.78;5035660;28;20179;-61
2022/03/04 09:21:07;;;;;;;10.23;5.60;;;;;;;18.78;48.36;100563.91;5031418;28;20211;-61
2022/03/04 09:23:32;;;;;;;17.20;5.93;;;;;;;18.75;48.89;100575.25;5032182;28;20267;-60
2022/03/04 09:25:58;;;;;;;9.43;5.20;;;;;;;18.73;48.76;100569.09;5031517;28;20411;-61
2022/03/04 09:28:23;;;;;;;9.70;5.30;;;;;;;18.76;48.94;100566.28;5032843;28;20180;-60
2022/03/04 09:30:49;;;;;;;11.70;4.60;;;;;;;18.79;48.78;100573.28;5035850;28;20191;-60
2022/03/04 09:33:14;;;;;;;11.73;4.90;;;;;;;18.77;48.76;100570.78;5051606;28;20167;-60
2022/03/04 09:35:40;;;;;;;9.47;4.80;;;;;;;18.75;48.91;100573.22;5051452;28;20176;-60
2022/03/04 09:38:05;;;;;;;8.63;5.10;;;;;;;18.75;49.01;100575.25;5051905;28;20179;-60
2022/03/04 09:40:31;;;;;;;15.67;4.97;;;;;;;18.78;48.66;100583.91;5051997;28;20234;-60
2022/03/04 09:43:00;;;;;;;9.80;4.90;;;;;;;18.75;48.83;100578.94;5052308;28;20257;-60
2022/03/04 09:45:25;;;;;;;12.37;5.17;;;;;;;18.78;48.87;100580.22;5052357;28;20536;-61
2022/03/04 09:47:51;;;;;;;12.90;4.60;;;;;;;18.79;48.86;100591.28;5050604;28;20432;-61
2022/03/04 09:50:16;;;;;;;10.77;5.13;;;;;;;18.80;48.95;100584.34;5033494;28;20179;-61
2022/03/04 09:52:43;;;;;;;12.47;5.00;;;;;;;18.79;49.18;100581.88;5052190;28;20204;-61
2022/03/04 09:55:08;;;;;;;11.57;5.03;;;;;;;18.80;48.83;100583.53;5052428;28;20175;-61
2022/03/04 09:57:35;;;;;;;11.00;4.67;;;;;;;18.81;49.05;100580.28;5051493;28;20416;-61
2022/03/04 10:00:00;;;;;;;8.87;4.97;;;;;;;18.81;49.01;100574.56;5050038;28;20928;-61
2022/03/04 10:02:26;;;;;;;10.50;4.80;;;;;;;18.82;48.83;100575.41;5039572;28;20419;-61
2022/03/04 10:04:58;;;;;;;9.37;4.57;;;;;;;18.82;48.83;100573.34;5050516;28;20247;-61
2022/03/04 10:07:23;;;;;;;12.93;4.60;;;;;;;18.81;49.18;100574.56;5051798;28;20194;-61
2022/03/04 10:09:49;;;;;;;8.70;4.97;;;;;;;18.83;48.80;100572.19;5033647;28;20510;-61
2022/03/04 10:12:16;;;;;;;9.00;5.10;;;;;;;18.81;48.83;100566.00;5031857;28;20176;-61
2022/03/04 10:14:57;;;;;;;13.10;4.93;;;;;;;18.79;49.23;100562.69;5032232;28;20183;-61
2022/03/04 10:17:22;;;;;;;8.53;4.50;;;;;;;18.78;48.97;100565.91;5030853;28;20437;-61
2022/03/04 10:19:55;;;;;;;8.90;4.40;;;;;;;18.79;49.24;100559.00;5031268;28;20427;-61
2022/03/04 10:22:21;;;;;;;10.57;4.90;;;;;;;18.80;49.28;100560.63;5031838;28;20192;-61
2022/03/04 10:24:46;;;;;;;10.17;5.53;;;;;;;18.79;49.04;100562.69;5030769;28;20419;-62
2022/03/04 10:27:13;;;;;;;7.60;4.60;;;;;;;18.80;49.03;100560.63;5029882;28;20222;-61
2022/03/04 10:29:46;;;;;;;7.43;4.43;;;;;;;18.82;49.22;100552.53;5031725;28;20538;-61
2022/03/04 10:32:14;;;;;;;8.37;4.57;;;;;;;18.82;48.94;100558.25;5030462;28;20894;-61
2022/03/04 10:34:53;;;;;;;9.60;4.73;;;;;;;18.82;49.56;100559.06;5030797;28;20419;-61
2022/03/04 10:37:42;;;;;;;8.00;4.27;;;;;;;18.82;49.27;100547.63;5048153;28;21054;-62
2022/03/04 10:40:07;;;;;;;7.47;4.30;;;;;;;18.80;49.45;100554.91;5031015;28;20427;-61
2022/03/04 10:42:50;;;;;;;9.53;4.83;;;;;;;18.83;49.22;100551.31;5031185;28;21134;-61
2022/03/04 10:45:27;;;;;;;6.77;4.23;;;;;;;18.84;49.27;100556.66;5047560;28;20650;-61
2022/03/04 10:47:56;;;;;;;8.10;4.93;;;;;;;18.79;49.49;100559.81;5051384;28;20440;-61
2022/03/04 10:50:35;;;;;;;9.17;4.90;;;;;;;18.82;49.40;100563.97;5050642;28;20509;-61
2022/03/04 10:53:07;;;;;;;7.50;4.40;;;;;;;18.83;49.10;100572.19;5050804;28;20426;-62
2022/03/04 10:55:34;;;;;;;7.13;4.33;;;;;;;18.84;49.25;100565.25;5050093;28;20488;-61
2022/03/04 10:58:02;;;;;;;7.57;4.50;;;;;;;18.82;49.17;100556.19;5049385;28;21338;-62
2022/03/04 11:00:35;;;;;;;10.23;4.70;;;;;;;18.82;49.42;100561.91;5049829;28;20481;-60
2022/03/04 11:03:00;;;;;;;11.30;4.67;;;;;;;18.84;49.34;100555.81;5050954;28;20418;-61
2022/03/04 11:05:26;;;;;;;6.50;3.90;;;;;;;18.87;49.07;100549.38;5050724;28;20470;-61
2022/03/04 11:07:51;;;;;;;8.80;5.00;;;;;;;18.86;49.35;100559.97;5031008;28;20187;-61
2022/03/04 11:10:19;;;;;;;8.20;4.40;;;;;;;18.87;49.18;100550.16;5030833;28;20176;-61
2022/03/04 11:12:46;;;;;;;7.40;4.17;;;;;;;18.86;49.35;100548.53;5030823;28;20839;-61
2022/03/04 11:15:12;;;;;;;6.20;4.20;;;;;;;18.86;49.19;100548.53;5048429;28;20905;-61